Time;durP1;ratioP1;P1;durP2;ratioP2;P2;SDS_P1;SDS_P2;PMS_P1;PMS_P2;Temp;Humidity;BMP_temperature;BMP_pressure;BME280_temperature;BME280_humidity;BME280_pressure;Samples;Min_cycle;Max_cycle;Signal;HPM_P1;HPM_P2
2023/10/18 00:01:00;;;;;;;6.10;4.22;;;;;;;16.05;71.61;97824.84;5032914;28;20021;-46
2023/10/18 00:03:30;;;;;;;7.47;3.60;;;;;;;15.98;71.52;97824.28;5038820;28;20043;-47
2023/10/18 00:06:04;;;;;;;5.50;4.07;;;;;;;15.88;71.65;97848.84;5072643;28;20017;-47
2023/10/18 00:08:30;;;;;;;6.13;3.83;;;;;;;15.73;71.85;97843.44;5055700;28;20501;-46
2023/10/18 00:11:00;;;;;;;10.77;4.40;;;;;;;15.62;72.22;97844.41;5072566;28;20021;-47
2023/10/18 00:13:25;;;;;;;7.30;4.40;;;;;;;15.60;72.39;97843.88;5054561;28;20028;-46
2023/10/18 00:15:53;;;;;;;5.88;3.85;;;;;;;15.60;72.11;97842.00;5054675;28;20028;-47
2023/10/18 00:18:21;;;;;;;6.78;3.90;;;;;;;15.71;72.39;97835.72;5072672;28;20024;-47
2023/10/18 00:20:47;;;;;;;5.90;3.42;;;;;;;15.94;71.42;97828.50;5037851;28;20109;-46
2023/10/18 00:23:14;;;;;;;8.88;5.43;;;;;;;16.13;71.06;97832.28;5072337;28;20024;-46
2023/10/18 00:25:40;;;;;;;12.05;4.43;;;;;;;16.20;70.09;97837.38;5072810;28;20107;-45
2023/10/18 00:28:08;;;;;;;7.10;4.05;;;;;;;16.18;70.02;97839.50;5072304;28;20507;-45
2023/10/18 00:30:35;;;;;;;9.10;4.05;;;;;;;16.17;69.76;97843.97;5072496;28;20028;-45
2023/10/18 00:33:02;;;;;;;5.78;3.88;;;;;;;16.12;69.75;97851.91;5072416;28;20044;-45
2023/10/18 00:35:31;;;;;;;6.25;3.03;;;;;;;16.10;69.75;97853.22;5054474;28;20506;-44
2023/10/18 00:37:58;;;;;;;5.60;4.30;;;;;;;16.04;69.72;97860.31;5072159;28;20103;-45
2023/10/18 00:45:50;;;;;;;4.38;3.50;;;;;;;16.16;70.10;97842.38;5056934;28;20027;-45
2023/10/18 00:48:30;;;;;;;13.63;12.25;;;;;;;16.38;69.68;97833.50;5071903;28;20529;-44
2023/10/18 00:50:58;;;;;;;17.65;16.05;;;;;;;16.45;68.72;97833.25;5053579;28;20098;-45
2023/10/18 00:53:25;;;;;;;11.05;9.27;;;;;;;16.37;67.30;97843.25;5071912;28;20107;-45
2023/10/18 00:56:01;;;;;;;7.05;4.82;;;;;;;16.25;68.35;97836.59;5053891;28;20031;-45
2023/10/18 00:58:34;;;;;;;7.57;4.60;;;;;;;16.28;68.45;97836.88;5053941;28;20036;-45
2023/10/18 01:01:05;;;;;;;6.65;4.80;;;;;;;16.33;68.49;97836.09;5071861;28;20028;-45
2023/10/18 01:03:38;;;;;;;6.80;3.03;;;;;;;16.26;67.62;97824.94;5071461;28;20178;-45
2023/10/18 01:06:12;;;;;;;4.65;2.85;;;;;;;16.26;66.67;97817.00;5071618;28;20569;-45
2023/10/18 01:08:38;;;;;;;6.57;3.47;;;;;;;16.19;66.99;97811.94;5071755;28;20036;-45
2023/10/18 01:11:19;;;;;;;4.18;2.45;;;;;;;16.09;67.34;97801.31;5053715;28;20033;-45
2023/10/18 01:13:45;;;;;;;5.00;3.13;;;;;;;15.94;67.99;97807.34;5071719;28;20039;-45
2023/10/18 01:16:20;;;;;;;3.42;2.53;;;;;;;15.87;68.48;97798.81;5053630;28;20405;-44
2023/10/18 01:18:47;;;;;;;6.90;3.53;;;;;;;15.86;68.72;97776.06;5071972;28;20079;-44
2023/10/18 01:21:19;;;;;;;4.50;2.53;;;;;;;15.83;68.88;97787.94;5071558;28;20028;-44
2023/10/18 01:23:56;;;;;;;4.55;2.30;;;;;;;15.85;68.79;97787.69;5053673;28;20060;-45
2023/10/18 01:26:27;;;;;;;4.85;2.70;;;;;;;15.81;69.04;97789.25;5037211;28;20033;-45
2023/10/18 01:28:54;;;;;;;7.53;2.40;;;;;;;15.79;69.51;97789.50;5071616;28;20029;-45
2023/10/18 01:31:21;;;;;;;6.00;3.30;;;;;;;15.73;69.77;97787.88;5071506;28;20029;-45
2023/10/18 01:33:47;;;;;;;3.78;2.78;;;;;;;15.70;69.84;97791.03;5071596;28;20013;-46
2023/10/18 01:36:21;;;;;;;7.18;3.47;;;;;;;15.67;70.12;97791.53;5071379;28;20029;-46
2023/10/18 01:38:48;;;;;;;5.00;2.90;;;;;;;15.67;70.29;97781.72;5071518;28;20059;-47
2023/10/18 01:41:33;;;;;;;5.70;3.95;;;;;;;15.70;70.20;97786.53;5071404;28;20450;-47
2023/10/18 01:44:07;;;;;;;5.32;3.92;;;;;;;15.77;69.61;97779.22;5071468;28;20509;-46
2023/10/18 01:46:39;;;;;;;5.25;3.40;;;;;;;15.88;69.54;97771.31;5071292;28;20115;-46
2023/10/18 01:49:06;;;;;;;8.05;3.50;;;;;;;15.96;69.59;97776.91;5071634;28;20028;-47
2023/10/18 01:51:32;;;;;;;5.70;4.25;;;;;;;16.01;69.02;97776.13;5071359;28;20016;-46
2023/10/18 01:54:05;;;;;;;7.90;3.03;;;;;;;16.10;68.97;97776.44;5053511;28;20021;-46
2023/10/18 01:56:31;;;;;;;6.05;3.90;;;;;;;16.16;68.56;97768.25;5071327;28;20553;-47
2023/10/18 01:58:57;;;;;;;7.05;3.78;;;;;;;16.26;68.01;97769.34;5053271;28;20036;-47
2023/10/18 02:01:23;;;;;;;6.60;3.70;;;;;;;16.29;68.26;97766.19;5053173;28;20029;-47
2023/10/18 02:03:51;;;;;;;5.55;3.63;;;;;;;16.31;68.31;97762.22;5045142;28;20063;-47
2023/10/18 02:06:17;;;;;;;6.22;3.28;;;;;;;16.38;68.35;97754.03;5034914;28;20065;-46
2023/10/18 02:08:43;;;;;;;8.38;3.30;;;;;;;16.37;68.75;97758.53;5033744;28;20052;-46
2023/10/18 02:11:09;;;;;;;7.10;3.38;;;;;;;16.38;69.30;97757.47;5033667;28;20376;-47
2023/10/18 02:13:39;;;;;;;7.07;4.18;;;;;;;16.35;68.95;97755.34;5034962;28;20155;-47
2023/10/18 02:16:06;;;;;;;6.38;2.83;;;;;;;16.38;68.90;97749.53;5033730;28;20037;-47
2023/10/18 02:18:35;;;;;;;6.15;3.30;;;;;;;16.28;69.31;97744.22;5034912;28;20022;-47
2023/10/18 02:21:02;;;;;;;4.70;3.05;;;;;;;16.24;69.05;97743.16;5034833;28;20021;-47
2023/10/18 02:23:37;;;;;;;9.68;3.63;;;;;;;16.18;69.41;97744.97;5034822;28;20040;-46
2023/10/18 02:26:53;;;;;;;6.50;3.00;;;;;;;16.16;70.30;97735.72;5034699;28;20105;-46
2023/10/18 02:28:52;;;;;;;5.20;3.80;;;;;;;16.07;70.63;97750.50;5027212;28;20087;-46
2023/10/18 02:31:21;;;;;;;4.68;2.58;;;;;;;16.12;71.35;97755.81;5033321;28;20030;-46
2023/10/18 02:33:53;;;;;;;5.40;2.47;;;;;;;16.08;71.40;97749.44;5034564;28;20029;-47
2023/10/18 02:36:21;;;;;;;5.22;3.90;;;;;;;16.00;71.58;97747.28;5034583;28;20033;-47
2023/10/18 02:38:52;;;;;;;8.55;3.65;;;;;;;16.02;71.95;97745.97;5034489;28;20079;-46
2023/10/18 02:41:21;;;;;;;5.53;3.25;;;;;;;16.02;71.85;97729.28;5034451;28;20029;-46
2023/10/18 02:43:48;;;;;;;7.97;3.60;;;;;;;15.98;71.35;97739.63;5034448;28;20025;-46
2023/10/18 02:46:20;;;;;;;6.47;4.10;;;;;;;16.00;70.90;97726.91;5034204;28;20105;-46
2023/10/18 02:48:47;;;;;;;10.35;6.93;;;;;;;16.07;69.38;97714.22;5034337;28;20033;-45
2023/10/18 02:51:14;;;;;;;4.93;2.60;;;;;;;16.12;68.48;97724.84;5034210;28;20120;-45
2023/10/18 02:53:43;;;;;;;5.90;3.60;;;;;;;16.05;68.33;97718.97;5034273;28;20030;-45
2023/10/18 02:56:20;;;;;;;5.38;3.47;;;;;;;16.02;67.97;97713.41;5032827;28;20033;-45
2023/10/18 02:58:49;;;;;;;8.82;3.78;;;;;;;16.01;66.68;97709.19;5034146;28;20026;-45
2023/10/18 03:01:18;;;;;;;11.65;4.50;;;;;;;15.89;66.82;97720.78;5034058;28;20112;-44
2023/10/18 03:03:49;;;;;;;6.15;3.70;;;;;;;15.87;66.59;97699.06;5044631;28;20120;-45
2023/10/18 03:06:16;;;;;;;8.82;4.15;;;;;;;15.94;65.82;97704.94;5073789;28;20027;-45
2023/10/18 03:08:49;;;;;;;5.05;3.83;;;;;;;15.93;65.52;97702.53;5074076;28;20089;-44
2023/10/18 03:11:17;;;;;;;10.73;4.35;;;;;;;15.87;65.44;97707.00;5056903;28;20074;-45
2023/10/18 03:13:43;;;;;;;3.13;2.70;;;;;;;15.80;66.18;97714.41;5073550;28;20031;-44
2023/10/18 03:18:46;;;;;;;4.93;3.22;;;;;;;15.76;66.46;97690.28;5073748;28;20060;-45
2023/10/18 03:21:21;;;;;;;6.97;4.32;;;;;;;15.74;66.56;97689.75;5073567;28;20031;-45
2023/10/18 03:23:51;;;;;;;5.55;3.67;;;;;;;15.63;66.88;97684.66;5073865;28;20483;-44
2023/10/18 03:26:23;;;;;;;6.18;3.60;;;;;;;15.54;67.16;97692.28;5073619;28;20379;-44
2023/10/18 03:28:52;;;;;;;5.00;3.53;;;;;;;15.57;67.02;97689.94;5055528;28;20032;-46
2023/10/18 03:34:01;;;;;;;5.70;3.60;;;;;;;15.68;67.02;97688.13;5073704;28;20024;-47
2023/10/18 03:36:35;;;;;;;6.70;2.90;;;;;;;15.70;67.03;97686.00;5055348;28;20036;-46
2023/10/18 03:39:10;;;;;;;4.30;3.20;;;;;;;15.75;66.82;97678.13;5056048;28;20100;-47
2023/10/18 03:41:40;;;;;;;9.70;4.38;;;;;;;15.69;66.95;97676.47;5073192;28;20178;-46
2023/10/18 03:44:13;;;;;;;5.70;3.65;;;;;;;15.68;67.10;97666.97;5073194;28;20050;-46
2023/10/18 03:46:48;;;;;;;9.48;3.83;;;;;;;15.76;67.37;97668.34;5073310;28;20589;-46
2023/10/18 03:49:33;;;;;;;8.82;4.47;;;;;;;15.88;67.02;97660.19;5055122;28;20028;-46
2023/10/18 03:57:27;;;;;;;7.15;3.65;;;;;;;16.46;65.69;97650.25;5072935;28;20035;-47
2023/10/18 03:59:58;;;;;;;7.93;3.20;;;;;;;16.56;65.20;97652.91;5072923;28;20545;-47
2023/10/18 04:02:27;;;;;;;8.43;3.33;;;;;;;16.72;65.07;97656.34;5054940;28;20402;-47
2023/10/18 04:05:10;;;;;;;5.43;3.20;;;;;;;16.76;64.20;97653.94;5054617;28;20037;-46
2023/10/18 04:07:36;;;;;;;8.52;3.95;;;;;;;16.96;64.33;97653.16;5072671;28;20033;-46
2023/10/18 04:10:12;;;;;;;6.72;3.95;;;;;;;17.34;63.47;97641.19;5072641;28;20027;-46
2023/10/18 04:12:40;;;;;;;7.55;3.63;;;;;;;17.67;62.23;97652.19;5072724;28;20123;-47
2023/10/18 04:15:22;;;;;;;7.47;4.25;;;;;;;17.63;60.85;97656.47;5072503;28;20035;-47
2023/10/18 04:18:03;;;;;;;8.68;4.05;;;;;;;17.56;61.07;97647.97;5072543;28;20029;-47
2023/10/18 04:20:31;;;;;;;6.38;3.88;;;;;;;17.52;61.24;97644.28;5072529;28;20033;-47
2023/10/18 04:22:58;;;;;;;6.45;4.53;;;;;;;17.63;61.60;97645.84;5072493;28;20025;-47
2023/10/18 04:25:26;;;;;;;6.57;3.88;;;;;;;17.84;60.79;97645.78;5054127;28;20394;-47
2023/10/18 04:27:53;;;;;;;8.60;3.53;;;;;;;17.74;60.46;97654.56;5071924;28;20393;-46
2023/10/18 04:30:22;;;;;;;5.97;3.60;;;;;;;17.44;60.29;97642.97;5072316;28;20387;-47
2023/10/18 04:32:59;;;;;;;7.68;3.65;;;;;;;17.13;60.99;97637.78;5054319;28;20036;-47
2023/10/18 04:35:29;;;;;;;5.00;3.25;;;;;;;16.84;61.67;97639.41;5072199;28;20449;-46
2023/10/18 04:37:58;;;;;;;5.95;3.47;;;;;;;16.70;62.38;97628.50;5072119;28;20032;-46
2023/10/18 04:40:27;;;;;;;6.78;3.20;;;;;;;16.57;62.73;97628.00;5072137;28;20017;-47
2023/10/18 04:42:56;;;;;;;6.00;3.40;;;;;;;16.46;63.56;97622.94;5054093;28;20029;-46
2023/10/18 04:45:23;;;;;;;4.22;3.40;;;;;;;16.49;63.66;97615.28;5037989;28;20025;-46
2023/10/18 04:47:50;;;;;;;4.60;3.60;;;;;;;16.46;63.93;97607.88;5072053;28;20029;-46
2023/10/18 04:50:33;;;;;;;5.55;3.17;;;;;;;16.48;63.62;97607.59;5071916;28;20028;-47
2023/10/18 04:53:00;;;;;;;5.78;3.35;;;;;;;16.51;63.99;97599.91;5072012;28;20120;-47
2023/10/18 04:55:26;;;;;;;6.45;3.50;;;;;;;16.49;63.75;97611.84;5054233;28;20025;-47
2023/10/18 04:57:55;;;;;;;4.30;3.30;;;;;;;16.47;64.13;97603.38;5072091;28;20020;-47
2023/10/18 05:00:50;;;;;;;14.60;4.72;;;;;;;16.31;64.66;97610.50;5053856;28;20044;-47
2023/10/18 05:03:17;;;;;;;5.53;3.47;;;;;;;16.67;65.25;97600.69;5071575;28;20063;-47
2023/10/18 05:05:52;;;;;;;6.47;3.60;;;;;;;16.99;63.74;97598.84;5072070;28;20064;-47
2023/10/18 05:08:18;;;;;;;8.70;3.38;;;;;;;17.14;63.15;97607.56;5071761;28;20039;-47
2023/10/18 05:10:46;;;;;;;9.98;3.72;;;;;;;17.25;62.75;97592.41;5053733;28;20025;-47
2023/10/18 05:16:00;;;;;;;6.43;3.42;;;;;;;16.94;62.23;97594.31;5071997;28;20166;-47
2023/10/18 05:18:26;;;;;;;5.43;3.35;;;;;;;16.61;63.02;97599.13;5053654;28;20027;-47
2023/10/18 05:23:27;;;;;;;8.18;4.30;;;;;;;16.33;64.56;97608.38;5071636;28;20405;-46
2023/10/18 05:26:17;;;;;;;8.07;3.75;;;;;;;16.23;65.39;97600.44;5071483;28;20549;-47
2023/10/18 05:29:05;;;;;;;9.20;3.40;;;;;;;16.08;66.09;97595.94;5071562;28;20068;-46
2023/10/18 05:34:01;;;;;;;9.68;3.72;;;;;;;15.88;67.22;97592.19;5071491;28;20040;-46
2023/10/18 05:36:29;;;;;;;9.35;4.00;;;;;;;15.97;67.99;97584.53;5071598;28;20037;-46
2023/10/18 05:39:06;;;;;;;4.88;3.83;;;;;;;16.14;67.29;97585.09;5056929;28;20032;-47
2023/10/18 05:41:45;;;;;;;7.30;3.17;;;;;;;16.26;66.86;97576.88;5075465;28;20037;-47
2023/10/18 05:44:12;;;;;;;9.20;4.00;;;;;;;16.46;66.46;97565.50;5075440;28;20556;-46
2023/10/18 05:46:39;;;;;;;7.68;4.05;;;;;;;16.77;66.13;97571.53;5075266;28;20082;-46
2023/10/18 05:49:13;;;;;;;7.55;3.85;;;;;;;17.13;65.06;97574.13;5057340;28;20029;-46
2023/10/18 05:51:51;;;;;;;8.50;2.97;;;;;;;17.32;63.45;97560.28;5075293;28;20520;-47
2023/10/18 05:54:28;;;;;;;7.07;3.78;;;;;;;17.13;63.19;97566.19;5075356;28;20112;-46
2023/10/18 05:56:56;;;;;;;9.40;3.13;;;;;;;16.84;64.69;97571.31;5075141;28;20028;-46
2023/10/18 06:01:57;;;;;;;7.72;3.40;;;;;;;16.15;67.63;97578.72;5075353;28;20501;-46
2023/10/18 06:04:37;;;;;;;8.18;3.22;;;;;;;16.03;68.75;97575.53;5074901;28;20094;-46
2023/10/18 06:07:13;;;;;;;11.00;3.85;;;;;;;16.15;68.58;97565.47;5074952;28;20075;-47
2023/10/18 06:09:58;;;;;;;8.90;4.57;;;;;;;16.09;67.94;97577.13;5075269;28;20057;-47
2023/10/18 06:12:27;;;;;;;7.68;3.90;;;;;;;15.86;67.96;97573.13;5075229;28;20401;-46
2023/10/18 06:14:54;;;;;;;11.45;4.20;;;;;;;15.75;68.27;97580.25;5056906;28;20033;-46
2023/10/18 06:17:26;;;;;;;8.15;4.95;;;;;;;15.94;68.71;97574.47;5073623;28;20036;-46
2023/10/18 06:19:52;;;;;;;6.93;4.13;;;;;;;16.26;68.08;97584.84;5074748;28;20028;-47
2023/10/18 06:25:03;;;;;;;8.37;4.17;;;;;;;16.48;67.46;97565.22;5075231;28;20123;-46
2023/10/18 06:27:38;;;;;;;17.55;5.47;;;;;;;16.65;66.50;97567.59;5074660;28;20027;-46
2023/10/18 06:30:14;;;;;;;8.13;4.57;;;;;;;16.78;65.91;97580.28;5074556;28;20040;-47
2023/10/18 06:32:41;;;;;;;10.23;4.82;;;;;;;16.60;65.46;97580.84;5074582;28;20032;-46
2023/10/18 06:35:15;;;;;;;8.63;4.63;;;;;;;16.44;65.69;97588.00;5074450;28;20550;-46
2023/10/18 06:37:41;;;;;;;11.93;5.05;;;;;;;16.62;66.12;97584.00;5056526;28;20060;-46
2023/10/18 06:40:40;;;;;;;9.95;5.55;;;;;;;17.39;65.21;97576.72;5056377;28;20056;-47
2023/10/18 06:43:08;;;;;;;11.18;4.50;;;;;;;17.73;62.21;97571.50;5060902;28;20021;-46
2023/10/18 06:45:37;;;;;;;8.93;4.18;;;;;;;17.79;61.92;97569.63;5074151;28;20479;-47
2023/10/18 06:48:04;;;;;;;8.25;4.30;;;;;;;17.63;62.10;97571.56;5056323;28;20020;-46
2023/10/18 06:50:30;;;;;;;8.90;4.50;;;;;;;17.57;62.58;97577.97;5073354;28;20070;-46
2023/10/18 06:52:58;;;;;;;6.40;5.05;;;;;;;17.45;62.66;97577.50;5074201;28;20039;-46
2023/10/18 06:55:43;;;;;;;6.93;4.60;;;;;;;17.41;63.05;97571.94;5074133;28;20055;-46
2023/10/18 07:01:14;;;;;;;8.68;4.70;;;;;;;17.63;61.87;97562.81;5073995;28;20132;-46
2023/10/18 07:03:34;;;;;;;11.95;4.53;;;;;;;17.31;62.33;97570.09;5072859;28;20036;-46
2023/10/18 07:06:18;;;;;;;12.70;4.53;;;;;;;17.07;63.12;97564.63;5074087;28;20021;-46
2023/10/18 07:08:49;;;;;;;8.63;4.53;;;;;;;16.87;64.09;97568.13;5073942;28;20150;-46
2023/10/18 07:11:19;;;;;;;10.20;4.53;;;;;;;16.80;64.38;97566.78;5073897;28;20459;-46
2023/10/18 07:13:46;;;;;;;7.68;4.32;;;;;;;16.89;64.69;97562.56;5055782;28;20141;-46
2023/10/18 07:16:18;;;;;;;9.43;4.57;;;;;;;17.15;64.40;97579.97;5073706;28;20054;-47
2023/10/18 07:18:44;;;;;;;5.47;3.95;;;;;;;17.57;63.15;97562.03;5073745;28;20090;-47
2023/10/18 07:21:13;;;;;;;9.80;3.65;;;;;;;17.91;62.41;97564.00;5073531;28;20016;-47
2023/10/18 07:23:40;;;;;;;5.85;4.00;;;;;;;18.74;61.09;97560.41;5073563;28;20033;-46
2023/10/18 07:26:13;;;;;;;9.80;3.80;;;;;;;19.70;58.38;97556.13;5073490;28;20107;-46
2023/10/18 07:28:40;;;;;;;6.68;3.55;;;;;;;20.27;56.28;97551.56;5073489;28;20131;-46
2023/10/18 07:31:10;;;;;;;12.75;4.38;;;;;;;20.20;55.39;97555.69;5073413;28;20023;-46
2023/10/18 07:33:42;;;;;;;14.23;4.30;;;;;;;20.01;55.45;97555.72;5073474;28;20062;-46
2023/10/18 07:36:12;;;;;;;15.13;4.80;;;;;;;19.79;55.75;97553.63;5073390;28;20032;-47
2023/10/18 07:38:55;;;;;;;8.55;3.80;;;;;;;19.60;55.70;97556.25;5073242;28;20025;-46
2023/10/18 07:41:27;;;;;;;7.30;3.97;;;;;;;19.31;56.90;97543.84;5073284;28;20032;-46
2023/10/18 07:43:55;;;;;;;7.82;4.57;;;;;;;19.26;57.29;97546.59;5055491;28;20032;-47
2023/10/18 07:46:24;;;;;;;17.23;5.20;;;;;;;19.32;58.01;97548.09;5073062;28;20021;-46
2023/10/18 07:48:53;;;;;;;10.13;4.13;;;;;;;19.71;57.40;97547.88;5073308;28;20453;-46
2023/10/18 07:51:32;;;;;;;13.43;4.88;;;;;;;19.96;56.74;97556.59;5072908;28;20021;-46
2023/10/18 07:53:59;;;;;;;7.55;4.18;;;;;;;20.14;56.23;97553.09;5073043;28;20464;-46
2023/10/18 07:56:32;;;;;;;12.85;4.13;;;;;;;20.14;55.97;97552.28;5072936;28;20024;-47
2023/10/18 08:02:13;;;;;;;8.73;4.20;;;;;;;20.31;55.70;97543.78;5010812;28;20081;-46
2023/10/18 08:04:43;;;;;;;16.02;5.50;;;;;;;20.30;55.61;97539.53;4994221;28;20137;-46
2023/10/18 08:07:14;;;;;;;8.75;4.00;;;;;;;20.21;55.27;97528.75;4994473;28;20474;-46
2023/10/18 08:09:41;;;;;;;6.18;3.00;;;;;;;20.04;55.57;97539.94;5010948;28;20029;-46
2023/10/18 08:12:19;;;;;;;9.48;3.20;;;;;;;19.89;56.21;97522.31;5010813;28;20065;-46
2023/10/18 08:14:48;;;;;;;14.23;4.20;;;;;;;20.08;56.20;97524.16;5010720;28;20128;-46
2023/10/18 08:17:30;;;;;;;5.85;3.42;;;;;;;20.12;55.98;97523.31;5010733;28;20435;-46
2023/10/18 08:22:46;;;;;;;8.70;3.88;;;;;;;20.04;56.18;97518.66;5010894;28;20117;-46
2023/10/18 08:25:29;;;;;;;13.15;4.40;;;;;;;20.12;56.77;97514.50;5010402;28;20099;-46
2023/10/18 08:27:56;;;;;;;6.43;3.40;;;;;;;20.35;56.74;97526.13;5010638;28;20026;-46
2023/10/18 08:30:38;;;;;;;9.43;3.47;;;;;;;20.40;56.38;97515.38;4994231;28;20109;-46
2023/10/18 08:33:05;;;;;;;15.98;6.03;;;;;;;20.37;56.75;97515.19;5035959;28;20049;-47
2023/10/18 08:35:36;;;;;;;26.25;6.22;;;;;;;20.38;58.69;97517.53;5052223;28;20044;-47
2023/10/18 08:38:02;;;;;;;28.23;7.53;;;;;;;20.04;61.77;97523.16;5052489;28;20031;-46
2023/10/18 08:43:29;;;;;;;13.38;5.32;;;;;;;19.69;66.66;97523.38;5052164;28;20104;-46
2023/10/18 08:46:05;;;;;;;30.25;7.30;;;;;;;19.68;66.72;97521.81;5045124;28;20048;-46
2023/10/18 08:48:38;;;;;;;11.93;5.90;;;;;;;19.72;65.85;97506.09;5052118;28;20020;-46
2023/10/18 08:51:04;;;;;;;30.52;8.75;;;;;;;19.68;64.72;97502.38;5051965;28;20072;-47
2023/10/18 08:53:31;;;;;;;31.83;10.23;;;;;;;19.88;63.85;97510.09;5050789;28;20049;-46
2023/10/18 08:55:57;;;;;;;43.28;21.60;;;;;;;20.11;63.04;97504.94;5051840;28;20029;-47
2023/10/18 08:58:30;;;;;;;13.18;4.35;;;;;;;20.21;61.81;97502.13;5051878;28;20017;-46
2023/10/18 09:03:28;;;;;;;21.25;7.63;;;;;;;20.74;60.69;97498.28;5054301;28;20487;-47
2023/10/18 09:06:05;;;;;;;24.00;5.40;;;;;;;20.98;58.69;97486.63;5071837;28;20047;-46
2023/10/18 09:09:18;;;;;;;12.48;4.28;;;;;;;20.93;58.81;97484.84;5053823;28;20032;-46
2023/10/18 09:11:27;;;;;;;9.68;3.80;;;;;;;20.95;58.27;97494.13;5063311;28;20107;-47
2023/10/18 09:14:10;;;;;;;10.85;4.15;;;;;;;20.81;57.96;97488.00;5071291;28;20021;-46
2023/10/18 09:16:41;;;;;;;7.80;5.00;;;;;;;20.50;58.25;97490.41;5071788;28;20032;-47
2023/10/18 09:19:11;;;;;;;19.30;4.55;;;;;;;20.15;58.87;97498.72;5053744;28;20390;-47
2023/10/18 09:21:50;;;;;;;26.33;6.30;;;;;;;19.84;59.42;97500.28;5071614;28;20103;-47
2023/10/18 09:24:23;;;;;;;14.75;4.05;;;;;;;19.44;60.39;97503.25;5071663;28;20033;-46
2023/10/18 09:26:50;;;;;;;12.40;4.93;;;;;;;19.15;62.12;97514.75;5071620;28;20459;-47
2023/10/18 09:29:17;;;;;;;6.80;3.13;;;;;;;19.10;62.93;97498.09;5053599;28;20025;-46
2023/10/18 09:32:04;;;;;;;7.85;3.47;;;;;;;19.02;63.32;97494.19;5071541;28;20100;-46
2023/10/18 09:34:38;;;;;;;11.10;4.65;;;;;;;18.87;64.49;97495.16;5055128;28;20140;-46
2023/10/18 09:37:13;;;;;;;13.15;5.03;;;;;;;18.50;66.42;97488.63;5071517;28;20021;-46
2023/10/18 09:39:42;;;;;;;9.98;4.25;;;;;;;17.98;69.42;97489.34;5053503;28;20040;-46
2023/10/18 09:42:17;;;;;;;9.00;5.40;;;;;;;17.52;72.19;97480.59;5071369;28;20115;-46
2023/10/18 09:44:44;;;;;;;13.73;5.00;;;;;;;17.16;75.98;97496.72;5054941;28;20032;-46
2023/10/18 09:47:10;;;;;;;11.85;5.43;;;;;;;17.12;79.83;97503.63;5071606;28;20032;-46
2023/10/18 09:49:40;;;;;;;13.52;5.05;;;;;;;17.00;82.39;97502.34;5071655;28;20537;-46
2023/10/18 09:52:11;;;;;;;7.00;4.63;;;;;;;16.94;85.19;97498.91;5053449;28;20056;-46
2023/10/18 09:54:46;;;;;;;11.98;4.90;;;;;;;16.77;86.29;97491.28;5071329;28;20029;-46
2023/10/18 09:57:18;;;;;;;16.00;6.30;;;;;;;16.95;89.12;97493.34;5071401;28;20025;-46
2023/10/18 09:59:47;;;;;;;15.70;5.53;;;;;;;17.38;89.97;97490.25;5071300;28;20041;-46
2023/10/18 10:02:16;;;;;;;16.48;7.00;;;;;;;17.65;90.22;97489.81;5053572;28;20021;-46
2023/10/18 10:04:43;;;;;;;20.35;7.22;;;;;;;17.98;89.97;97503.41;5053018;28;20079;-46
2023/10/18 10:10:07;;;;;;;;;;;;;;;18.11;89.82;97494.81;5071983;28;20031;-46
2023/10/18 10:12:34;;;;;;;14.05;5.80;;;;;;;18.23;90.36;97494.47;5053191;28;19934;-47
2023/10/18 10:15:00;;;;;;;12.93;6.13;;;;;;;18.29;89.33;97492.53;5071416;28;20390;-46
2023/10/18 10:17:31;;;;;;;14.60;6.35;;;;;;;18.45;89.37;97488.69;5071174;28;20131;-46
2023/10/18 10:20:15;;;;;;;16.25;9.05;;;;;;;18.70;88.09;97500.13;5053157;28;20128;-46
2023/10/18 10:22:44;;;;;;;9.60;5.70;;;;;;;18.97;86.48;97491.59;5071152;28;20099;-47
2023/10/18 10:25:19;;;;;;;16.42;8.10;;;;;;;19.20;85.30;97490.00;5055110;28;20036;-46
2023/10/18 10:27:59;;;;;;;12.88;6.25;;;;;;;19.51;85.39;97492.22;5074659;28;20107;-46
2023/10/18 10:30:35;;;;;;;11.23;6.65;;;;;;;19.53;84.52;97477.56;5074576;28;20037;-47
2023/10/18 10:33:05;;;;;;;11.48;5.72;;;;;;;19.56;83.94;97479.66;5056649;28;20024;-46
2023/10/18 10:35:35;;;;;;;16.08;6.30;;;;;;;19.49;82.71;97476.53;5074824;28;20055;-47
2023/10/18 10:38:01;;;;;;;10.27;5.50;;;;;;;19.50;82.96;97472.81;5074433;28;20029;-46
2023/10/18 10:43:02;;;;;;;8.60;5.38;;;;;;;19.46;81.73;97465.72;5074406;28;20402;-46
2023/10/18 10:46:18;;;;;;;13.05;6.30;;;;;;;19.46;82.27;97463.84;5074350;28;20112;-46
2023/10/18 10:51:16;;;;;;;10.02;5.93;;;;;;;19.78;82.98;97465.00;5074223;28;20029;-46
2023/10/18 10:53:49;;;;;;;15.15;10.32;;;;;;;20.09;82.53;97459.94;5074171;28;20067;-46
2023/10/18 10:56:20;;;;;;;24.33;17.85;;;;;;;20.45;82.24;97451.34;5039813;28;20181;-46
2023/10/18 11:01:39;;;;;;;14.32;6.15;;;;;;;20.91;81.12;97447.03;5074060;28;20024;-46
2023/10/18 11:04:28;;;;;;;17.08;8.05;;;;;;;21.24;80.80;97444.19;5073708;28;20052;-47
2023/10/18 11:07:01;;;;;;;15.77;7.30;;;;;;;21.72;77.77;97452.47;5059629;28;20052;-47
2023/10/18 11:09:33;;;;;;;22.58;13.63;;;;;;;22.08;75.87;97432.91;5056225;28;20036;-46
2023/10/18 11:12:26;;;;;;;24.95;12.82;;;;;;;22.46;73.23;97423.66;5055891;28;20039;-47
2023/10/18 11:14:50;;;;;;;21.23;14.80;;;;;;;22.92;70.62;97417.81;5073293;28;20048;-46
2023/10/18 11:19:51;;;;;;;10.85;5.85;;;;;;;22.83;66.09;97417.00;5073699;28;20032;-47
2023/10/18 11:22:23;;;;;;;8.57;5.10;;;;;;;22.69;65.56;97411.78;5073958;28;20425;-47
2023/10/18 11:24:50;;;;;;;9.10;5.22;;;;;;;22.83;64.95;97416.22;5055613;28;20036;-47
2023/10/18 11:27:21;;;;;;;10.32;4.80;;;;;;;22.95;63.16;97403.03;5073635;28;20510;-47
2023/10/18 11:29:52;;;;;;;18.85;6.00;;;;;;;23.08;62.69;97407.50;5073601;28;20055;-47
2023/10/18 11:32:18;;;;;;;16.08;5.95;;;;;;;22.97;61.89;97403.50;5073495;28;20025;-47
2023/10/18 11:34:45;;;;;;;15.88;5.80;;;;;;;22.94;62.13;97401.47;5073304;28;20035;-47
2023/10/18 11:37:14;;;;;;;11.63;5.85;;;;;;;23.13;62.89;97388.59;5073198;28;20063;-47
2023/10/18 11:39:43;;;;;;;11.77;5.82;;;;;;;23.46;62.92;97392.66;5073353;28;20029;-47
2023/10/18 11:42:10;;;;;;;15.82;5.53;;;;;;;23.86;61.59;97390.59;5073310;28;20066;-47
2023/10/18 11:44:39;;;;;;;13.25;5.10;;;;;;;24.02;60.39;97382.03;5073219;28;20032;-46
2023/10/18 11:47:19;;;;;;;9.30;4.75;;;;;;;23.96;59.71;97383.31;5073008;28;20021;-47
2023/10/18 11:49:48;;;;;;;18.27;5.30;;;;;;;24.14;59.34;97371.44;5073087;28;20028;-47
2023/10/18 11:52:22;;;;;;;7.90;3.10;;;;;;;24.33;56.92;97368.38;5055561;28;20046;-47
2023/10/18 11:54:54;;;;;;;9.48;3.92;;;;;;;24.32;56.45;97370.25;5073052;28;20067;-47
2023/10/18 11:57:35;;;;;;;8.45;3.40;;;;;;;24.42;56.46;97371.78;5073011;28;20029;-47
2023/10/18 12:02:46;;;;;;;10.90;3.13;;;;;;;24.59;54.66;97356.72;5073180;28;20085;-47
2023/10/18 12:05:16;;;;;;;12.35;3.92;;;;;;;24.56;55.41;97346.66;5034258;28;20499;-47
2023/10/18 12:07:44;;;;;;;8.82;3.25;;;;;;;24.67;55.05;97342.47;5015926;28;20399;-47
2023/10/18 12:10:17;;;;;;;8.43;3.45;;;;;;;24.78;55.18;97343.69;5032777;28;20535;-47
2023/10/18 12:12:49;;;;;;;8.98;2.95;;;;;;;24.96;54.71;97344.34;5031471;28;20025;-47
2023/10/18 12:15:15;;;;;;;7.55;2.50;;;;;;;25.09;53.43;97345.97;5033002;28;20103;-47
2023/10/18 12:17:42;;;;;;;14.25;3.20;;;;;;;25.30;51.97;97347.88;5032649;28;20017;-47
2023/10/18 12:20:10;;;;;;;9.45;2.70;;;;;;;25.49;51.45;97337.44;5031334;28;20564;-47
2023/10/18 12:22:36;;;;;;;10.35;3.10;;;;;;;25.93;49.95;97334.31;5032581;28;20053;-47
2023/10/18 12:25:03;;;;;;;13.55;3.28;;;;;;;26.36;50.09;97324.09;5032650;28;20461;-47
2023/10/18 12:27:34;;;;;;;12.13;2.53;;;;;;;26.84;47.94;97323.28;5032361;28;20028;-47
2023/10/18 12:30:51;;;;;;;11.85;3.20;;;;;;;27.04;46.88;97313.44;5032436;28;20037;-47
2023/10/18 12:32:51;;;;;;;15.32;4.13;;;;;;;27.24;46.99;97306.31;5024860;28;20533;-47
2023/10/18 12:35:19;;;;;;;10.77;3.58;;;;;;;27.19;44.88;97295.00;5032239;28;20547;-47
2023/10/18 12:37:54;;;;;;;14.90;3.92;;;;;;;26.94;46.15;97297.00;5031082;28;20525;-47
2023/10/18 12:40:32;;;;;;;9.68;2.40;;;;;;;26.92;47.02;97296.56;5032282;28;20080;-47
2023/10/18 12:43:00;;;;;;;12.18;3.22;;;;;;;26.70;46.12;97280.59;5032274;28;20510;-47
2023/10/18 12:45:27;;;;;;;19.20;3.30;;;;;;;26.50;47.37;97274.22;5032029;28;20049;-47
2023/10/18 12:47:53;;;;;;;10.75;3.47;;;;;;;26.38;46.73;97276.13;5031546;28;20492;-47
2023/10/18 12:50:19;;;;;;;9.02;3.28;;;;;;;26.16;47.32;97286.25;5032348;28;20026;-47